Flight Track Log - Related Links

Times and Time Zones

All times are in EDT time to prevent confusion due to time zone crossing. See the FIN666 flight status page for this flight to view local times or setup timezone preferences in your user account.

Time Position Orientation Groundspeed Altitude Reporting Facility
EDT Latitude Longitude Course Direction KTS MPH feet Rate Location/Type
Wed 08:21:00 AM 55.9164 13.2747 49° Northeast  Level Estimated
Wed 08:22:00 AM 55.9905 13.4309 50° Northeast  Level Estimated
Wed 08:23:00 AM 56.0644 13.5877 50° Northeast  Level Estimated
Wed 08:24:00 AM 56.1381 13.7451 50° Northeast  Level Estimated
Wed 08:25:00 AM 56.2149 13.9101 50° Northeast  Level Estimated
Wed 08:26:00 AM 56.2915 14.0759 50° Northeast  Level Estimated
Wed 08:27:00 AM 56.3679 14.2423 50° Northeast  Level Estimated
Wed 08:28:00 AM 56.4440 14.4093 50° Northeast  Level Estimated
Wed 08:29:00 AM 56.5200 14.5771 51° Northeast  Level Estimated
Wed 08:30:00 AM 56.5956 14.7455 51° Northeast  Level Estimated
Wed 08:31:00 AM 56.6711 14.9146 51° Northeast  Level Estimated
Wed 08:32:00 AM 56.7463 15.0843 51° Northeast  Level Estimated
Wed 08:33:00 AM 56.8213 15.2548 51° Northeast  Level Estimated
Wed 08:34:00 AM 56.8961 15.4259 51° Northeast  Level Estimated
Wed 08:35:00 AM 56.9706 15.5977 51° Northeast  Level Estimated
Wed 08:36:00 AM 57.0449 15.7702 52° Northeast  Level Estimated
Wed 08:37:00 AM 57.1190 15.9434 52° Northeast  Level Estimated
Wed 08:38:00 AM 57.1928 16.1173 52° Northeast  Level Estimated
Wed 08:39:00 AM 57.2664 16.2918 52° Northeast  Level Estimated
Wed 08:40:00 AM 57.3397 16.4671 52° Northeast  Level Estimated
Wed 08:41:00 AM 57.4128 16.6431 52° Northeast  Level Estimated
Wed 08:42:00 AM 57.4857 16.8197 52° Northeast  Level Estimated
Wed 08:43:00 AM 57.5583 16.9971 53° Northeast  Level Estimated
Wed 08:44:00 AM 57.6306 17.1752 53° Northeast  Level Estimated
Wed 08:45:00 AM 57.7027 17.3540 53° Northeast  Level Estimated
Wed 08:46:00 AM 57.7746 17.5335 53° Northeast  Level Estimated
Wed 08:47:00 AM 57.8462 17.7137 53° Northeast  Level Estimated
Wed 08:48:00 AM 57.9175 17.8947 53° Northeast  Level Estimated
Wed 08:49:00 AM 57.9886 18.0763 54° Northeast  Level Estimated
Wed 08:50:00 AM 58.0594 18.2587 54° Northeast  Level Estimated
Wed 08:51:00 AM 58.1299 18.4418 54° Northeast  Level Estimated
Wed 08:52:00 AM 58.2002 18.6257 54° Northeast  Level Estimated
Wed 08:53:00 AM 58.2702 18.8102 54° Northeast  Level Estimated
Wed 08:54:00 AM 58.3400 18.9955 54° Northeast  Level Estimated
Wed 08:55:00 AM 58.4095 19.1815 54° Northeast  Level Estimated
Wed 08:56:00 AM 58.4787 19.3683 55° Northeast  Level Estimated
Wed 08:57:00 AM 58.5476 19.5557 55° Northeast  Level Estimated
Wed 08:58:00 AM 58.6163 19.7440 55° Northeast  Level Estimated
Wed 08:59:00 AM 58.6847 19.9329 55° Northeast  Level Estimated
Wed 09:00:00 AM 58.7528 20.1226 55° Northeast  Level Estimated
Wed 09:01:00 AM 58.8207 20.3131 55° Northeast  Level Estimated
Wed 09:02:00 AM 58.8882 20.5043 56° Northeast  Level Estimated
Wed 09:03:00 AM 58.9555 20.6962 56° Northeast  Level Estimated
Wed 09:04:00 AM 59.0225 20.8889 56° Northeast  Level Estimated
Wed 09:05:00 AM 59.0892 21.0823 56° Northeast  Level Estimated
Wed 09:06:00 AM 59.1556 21.2765 56° Northeast  Level Estimated
Wed 09:07:00 AM 59.2217 21.4715 56° Northeast  Level Estimated
Wed 09:08:00 AM 59.2876 21.6672 57° Northeast  Level Estimated
Wed 09:09:00 AM 59.3531 21.8636 57° Northeast  Level Estimated
Wed 09:10:00 AM 59.4183 22.0609 57° Northeast  Level Estimated
Wed 09:11:00 AM 59.4833 22.2589 57° Northeast  Level Estimated
Wed 09:12:00 AM 59.5479 22.4576 57° Northeast  Level Estimated
Wed 09:13:00 AM 59.6123 22.6571 57° Northeast  Level Estimated
Wed 09:14:00 AM 59.6763 22.8573 58° Northeast  Level Estimated
Wed 09:15:00 AM 59.7400 23.0584 58° Northeast  Level Estimated
Wed 09:16:00 AM 59.8034 23.2602 58° Northeast  Level Estimated
Wed 09:17:00 AM 59.8665 23.4627 58° Northeast  Level Estimated
Wed 09:18:00 AM 59.9293 23.6661 58° Northeast  Level Estimated
Wed 09:19:00 AM 59.9918 23.8702 58° Northeast  Level Estimated
Wed 09:20:00 AM 60.0540 24.0750 59° Northeast  Level Estimated
Wed 09:21:00 AM 60.1158 24.2807 59° Northeast  Level Estimated
Wed 09:22:00 AM 60.1774 24.4871 59° Northeast  Level Estimated
Wed 09:23:00 AM 60.2386 24.6943 59° Northeast  Level Estimated
Wed 09:24:00 AM 60.2994 24.9022 59° Northeast  Level Estimated
Wed 09:25:00 AM 60.3172 24.9633 60° Northeast  Level Estimated
Wed 09:26:00 AM 60.3172 24.9633 37° Northeast  Level Estimated
Wed 09:27:00 AM 60.3172 24.9633 37° Northeast  Level Estimated
Wed 09:28:00 AM 60.3172 24.9633 37° Northeast  Level Estimated
Wed 09:29:00 AM 60.3172 24.9633 37° Northeast  Level Estimated
Wed 09:30:00 AM 60.3172 24.9633 37° Northeast  Level Estimated
Wed 09:31:00 AM 60.3172 24.9633 37° Northeast  Level Estimated
Wed 09:32:00 AM 60.3172 24.9633 37° Northeast  Level Estimated
Wed 09:33:00 AM 60.3172 24.9633 37° Northeast  Level Estimated
Wed 09:34:00 AM 60.3172 24.9633 37° Northeast  Level Estimated
Wed 09:35:00 AM 60.3172 24.9633 37° Northeast  Level Estimated
Wed 09:36:00 AM 60.3172 24.9633 37° Northeast  Level Estimated
Wed 09:37:00 AM 60.3172 24.9633 37° Northeast  Level Estimated
Wed 09:38:00 AM 60.3172 24.9633 37° Northeast  Level Estimated

Login

Don't have an account? Register now (free) for customized features, flight alerts, and more!